sensor_id;sensor_type;location;lat;lon;timestamp;P1;durP1;ratioP1;P2;durP2;ratioP2
62798;SDS011;48842;51.046;13.796;2023-07-20T00:01:19;3.50;;;3.07;;
62798;SDS011;48842;51.046;13.796;2023-07-20T00:03:44;4.43;;;3.67;;
62798;SDS011;48842;51.046;13.796;2023-07-20T00:06:19;4.70;;;3.63;;
62798;SDS011;48842;51.046;13.796;2023-07-20T00:08:44;3.77;;;3.27;;
62798;SDS011;48842;51.046;13.796;2023-07-20T00:11:10;6.13;;;4.63;;
62798;SDS011;48842;51.046;13.796;2023-07-20T00:13:35;3.83;;;3.50;;
62798;SDS011;48842;51.046;13.796;2023-07-20T00:16:00;6.20;;;3.60;;
62798;SDS011;48842;51.046;13.796;2023-07-20T00:18:26;4.53;;;3.70;;
62798;SDS011;48842;51.046;13.796;2023-07-20T00:20:51;11.47;;;4.07;;
62798;SDS011;48842;51.046;13.796;2023-07-20T00:23:16;3.83;;;3.13;;
62798;SDS011;48842;51.046;13.796;2023-07-20T00:25:41;4.90;;;3.77;;
62798;SDS011;48842;51.046;13.796;2023-07-20T00:28:07;4.97;;;3.23;;
62798;SDS011;48842;51.046;13.796;2023-07-20T00:30:32;3.67;;;3.23;;
62798;SDS011;48842;51.046;13.796;2023-07-20T00:32:57;4.37;;;3.47;;
62798;SDS011;48842;51.046;13.796;2023-07-20T00:35:22;4.70;;;3.40;;
62798;SDS011;48842;51.046;13.796;2023-07-20T00:37:48;9.03;;;3.67;;
62798;SDS011;48842;51.046;13.796;2023-07-20T00:40:13;5.60;;;3.63;;
62798;SDS011;48842;51.046;13.796;2023-07-20T00:42:38;4.63;;;3.13;;
62798;SDS011;48842;51.046;13.796;2023-07-20T00:45:04;3.33;;;2.70;;
62798;SDS011;48842;51.046;13.796;2023-07-20T00:47:30;3.23;;;2.93;;
62798;SDS011;48842;51.046;13.796;2023-07-20T00:49:56;6.57;;;3.00;;
62798;SDS011;48842;51.046;13.796;2023-07-20T00:52:21;4.50;;;2.90;;
62798;SDS011;48842;51.046;13.796;2023-07-20T00:54:48;2.40;;;2.20;;
62798;SDS011;48842;51.046;13.796;2023-07-20T00:57:14;5.13;;;2.80;;
62798;SDS011;48842;51.046;13.796;2023-07-20T00:59:40;2.90;;;2.63;;
62798;SDS011;48842;51.046;13.796;2023-07-20T01:02:06;4.87;;;2.83;;
62798;SDS011;48842;51.046;13.796;2023-07-20T01:04:31;2.77;;;2.50;;
62798;SDS011;48842;51.046;13.796;2023-07-20T01:07:00;2.33;;;2.23;;
62798;SDS011;48842;51.046;13.796;2023-07-20T01:09:33;2.80;;;2.60;;
62798;SDS011;48842;51.046;13.796;2023-07-20T01:12:13;2.40;;;2.00;;
62798;SDS011;48842;51.046;13.796;2023-07-20T01:14:48;4.33;;;2.43;;
62798;SDS011;48842;51.046;13.796;2023-07-20T01:17:13;4.37;;;2.20;;
62798;SDS011;48842;51.046;13.796;2023-07-20T01:19:39;4.27;;;2.40;;
62798;SDS011;48842;51.046;13.796;2023-07-20T01:27:36;2.50;;;2.10;;
62798;SDS011;48842;51.046;13.796;2023-07-20T01:32:35;4.70;;;2.17;;
62798;SDS011;48842;51.046;13.796;2023-07-20T01:35:04;1.80;;;1.70;;
62798;SDS011;48842;51.046;13.796;2023-07-20T01:37:30;3.83;;;1.90;;
62798;SDS011;48842;51.046;13.796;2023-07-20T01:39:58;2.47;;;1.60;;
62798;SDS011;48842;51.046;13.796;2023-07-20T01:42:24;3.10;;;1.77;;
62798;SDS011;48842;51.046;13.796;2023-07-20T01:44:53;5.43;;;2.17;;
62798;SDS011;48842;51.046;13.796;2023-07-20T01:47:18;2.60;;;2.03;;
62798;SDS011;48842;51.046;13.796;2023-07-20T01:49:44;1.63;;;1.50;;
62798;SDS011;48842;51.046;13.796;2023-07-20T01:52:09;5.20;;;1.80;;
62798;SDS011;48842;51.046;13.796;2023-07-20T01:54:34;2.27;;;2.00;;
62798;SDS011;48842;51.046;13.796;2023-07-20T01:56:59;2.37;;;1.70;;
62798;SDS011;48842;51.046;13.796;2023-07-20T01:59:25;4.37;;;1.80;;
62798;SDS011;48842;51.046;13.796;2023-07-20T02:01:50;4.30;;;2.37;;
62798;SDS011;48842;51.046;13.796;2023-07-20T02:04:15;4.07;;;2.10;;
62798;SDS011;48842;51.046;13.796;2023-07-20T02:06:40;6.43;;;2.40;;
62798;SDS011;48842;51.046;13.796;2023-07-20T02:09:06;4.77;;;2.40;;
62798;SDS011;48842;51.046;13.796;2023-07-20T02:11:31;8.10;;;2.50;;
62798;SDS011;48842;51.046;13.796;2023-07-20T02:13:56;6.40;;;3.07;;
62798;SDS011;48842;51.046;13.796;2023-07-20T02:16:22;7.57;;;2.77;;
62798;SDS011;48842;51.046;13.796;2023-07-20T02:18:47;7.07;;;2.80;;
62798;SDS011;48842;51.046;13.796;2023-07-20T02:21:12;5.00;;;2.83;;
62798;SDS011;48842;51.046;13.796;2023-07-20T02:23:38;7.33;;;3.07;;
62798;SDS011;48842;51.046;13.796;2023-07-20T02:26:03;6.00;;;3.17;;
62798;SDS011;48842;51.046;13.796;2023-07-20T02:28:28;8.93;;;2.77;;
62798;SDS011;48842;51.046;13.796;2023-07-20T02:30:54;7.77;;;4.20;;
62798;SDS011;48842;51.046;13.796;2023-07-20T02:33:19;10.73;;;3.67;;
62798;SDS011;48842;51.046;13.796;2023-07-20T02:35:45;4.77;;;3.03;;
62798;SDS011;48842;51.046;13.796;2023-07-20T02:38:10;9.83;;;3.20;;
62798;SDS011;48842;51.046;13.796;2023-07-20T02:40:35;5.80;;;3.30;;
62798;SDS011;48842;51.046;13.796;2023-07-20T02:43:01;4.83;;;3.13;;
62798;SDS011;48842;51.046;13.796;2023-07-20T02:45:26;6.40;;;3.30;;
62798;SDS011;48842;51.046;13.796;2023-07-20T02:47:51;9.03;;;3.70;;
62798;SDS011;48842;51.046;13.796;2023-07-20T02:50:16;6.90;;;4.90;;
62798;SDS011;48842;51.046;13.796;2023-07-20T02:52:42;8.03;;;4.13;;
62798;SDS011;48842;51.046;13.796;2023-07-20T02:55:07;12.30;;;3.97;;
62798;SDS011;48842;51.046;13.796;2023-07-20T02:57:33;8.90;;;3.97;;
62798;SDS011;48842;51.046;13.796;2023-07-20T02:59:58;4.60;;;4.07;;
62798;SDS011;48842;51.046;13.796;2023-07-20T03:02:23;8.20;;;3.90;;
62798;SDS011;48842;51.046;13.796;2023-07-20T03:04:50;6.13;;;4.00;;
62798;SDS011;48842;51.046;13.796;2023-07-20T03:07:15;7.17;;;4.20;;
62798;SDS011;48842;51.046;13.796;2023-07-20T03:09:40;7.67;;;4.07;;
62798;SDS011;48842;51.046;13.796;2023-07-20T03:12:06;4.90;;;3.87;;
62798;SDS011;48842;51.046;13.796;2023-07-20T03:14:31;9.60;;;4.20;;
62798;SDS011;48842;51.046;13.796;2023-07-20T03:16:57;10.97;;;4.50;;
62798;SDS011;48842;51.046;13.796;2023-07-20T03:19:22;11.80;;;4.63;;
62798;SDS011;48842;51.046;13.796;2023-07-20T03:21:47;14.10;;;5.13;;
62798;SDS011;48842;51.046;13.796;2023-07-20T03:24:13;9.60;;;4.60;;
62798;SDS011;48842;51.046;13.796;2023-07-20T03:26:38;7.43;;;4.97;;
62798;SDS011;48842;51.046;13.796;2023-07-20T03:29:03;8.40;;;5.00;;
62798;SDS011;48842;51.046;13.796;2023-07-20T03:31:30;9.33;;;4.70;;
62798;SDS011;48842;51.046;13.796;2023-07-20T03:33:56;13.57;;;5.17;;
62798;SDS011;48842;51.046;13.796;2023-07-20T03:36:21;8.60;;;5.03;;
62798;SDS011;48842;51.046;13.796;2023-07-20T03:38:47;13.13;;;5.57;;
62798;SDS011;48842;51.046;13.796;2023-07-20T03:41:12;8.37;;;4.67;;
62798;SDS011;48842;51.046;13.796;2023-07-20T03:43:37;13.50;;;4.63;;
62798;SDS011;48842;51.046;13.796;2023-07-20T03:46:03;5.10;;;4.60;;
62798;SDS011;48842;51.046;13.796;2023-07-20T03:48:31;10.73;;;5.57;;
62798;SDS011;48842;51.046;13.796;2023-07-20T03:50:57;13.70;;;4.93;;
62798;SDS011;48842;51.046;13.796;2023-07-20T03:53:23;11.97;;;5.47;;
62798;SDS011;48842;51.046;13.796;2023-07-20T03:55:48;8.30;;;5.10;;
62798;SDS011;48842;51.046;13.796;2023-07-20T03:58:16;9.93;;;5.80;;
62798;SDS011;48842;51.046;13.796;2023-07-20T04:00:45;7.10;;;4.83;;
62798;SDS011;48842;51.046;13.796;2023-07-20T04:03:11;6.97;;;5.10;;
62798;SDS011;48842;51.046;13.796;2023-07-20T04:05:37;6.10;;;4.67;;
62798;SDS011;48842;51.046;13.796;2023-07-20T04:08:02;7.70;;;4.37;;
62798;SDS011;48842;51.046;13.796;2023-07-20T04:10:27;5.73;;;4.63;;
62798;SDS011;48842;51.046;13.796;2023-07-20T04:12:52;9.00;;;5.03;;
62798;SDS011;48842;51.046;13.796;2023-07-20T04:15:18;7.03;;;5.10;;
62798;SDS011;48842;51.046;13.796;2023-07-20T04:17:44;8.27;;;5.70;;
62798;SDS011;48842;51.046;13.796;2023-07-20T04:20:10;8.40;;;5.30;;
62798;SDS011;48842;51.046;13.796;2023-07-20T04:22:35;6.00;;;5.03;;
62798;SDS011;48842;51.046;13.796;2023-07-20T04:25:00;6.93;;;4.50;;
62798;SDS011;48842;51.046;13.796;2023-07-20T04:27:26;13.13;;;5.80;;
62798;SDS011;48842;51.046;13.796;2023-07-20T04:29:51;14.87;;;4.60;;
62798;SDS011;48842;51.046;13.796;2023-07-20T04:32:17;8.40;;;5.03;;
62798;SDS011;48842;51.046;13.796;2023-07-20T04:34:42;6.20;;;4.77;;
62798;SDS011;48842;51.046;13.796;2023-07-20T04:37:07;15.10;;;5.27;;
62798;SDS011;48842;51.046;13.796;2023-07-20T04:39:33;9.47;;;5.40;;
62798;SDS011;48842;51.046;13.796;2023-07-20T04:41:58;9.63;;;4.10;;
62798;SDS011;48842;51.046;13.796;2023-07-20T04:44:23;10.67;;;5.17;;
62798;SDS011;48842;51.046;13.796;2023-07-20T04:46:49;7.03;;;4.60;;
62798;SDS011;48842;51.046;13.796;2023-07-20T04:49:14;6.40;;;4.77;;
62798;SDS011;48842;51.046;13.796;2023-07-20T04:51:39;5.63;;;4.67;;
62798;SDS011;48842;51.046;13.796;2023-07-20T04:54:05;11.83;;;5.70;;
62798;SDS011;48842;51.046;13.796;2023-07-20T04:56:30;17.07;;;5.83;;
62798;SDS011;48842;51.046;13.796;2023-07-20T04:58:55;11.33;;;5.23;;
62798;SDS011;48842;51.046;13.796;2023-07-20T05:01:21;7.17;;;5.90;;
62798;SDS011;48842;51.046;13.796;2023-07-20T05:03:46;12.07;;;6.03;;
62798;SDS011;48842;51.046;13.796;2023-07-20T05:06:12;11.23;;;6.60;;
62798;SDS011;48842;51.046;13.796;2023-07-20T05:08:37;11.77;;;6.53;;
62798;SDS011;48842;51.046;13.796;2023-07-20T05:11:03;9.60;;;6.30;;
62798;SDS011;48842;51.046;13.796;2023-07-20T05:13:29;10.07;;;6.43;;
62798;SDS011;48842;51.046;13.796;2023-07-20T05:15:54;9.70;;;6.90;;
62798;SDS011;48842;51.046;13.796;2023-07-20T05:18:20;15.13;;;6.90;;
62798;SDS011;48842;51.046;13.796;2023-07-20T05:20:46;10.13;;;6.93;;
62798;SDS011;48842;51.046;13.796;2023-07-20T05:23:12;13.00;;;6.37;;
62798;SDS011;48842;51.046;13.796;2023-07-20T05:25:38;11.00;;;5.70;;
62798;SDS011;48842;51.046;13.796;2023-07-20T05:28:03;13.37;;;5.80;;
62798;SDS011;48842;51.046;13.796;2023-07-20T05:30:28;12.27;;;6.07;;
62798;SDS011;48842;51.046;13.796;2023-07-20T05:32:54;10.10;;;5.90;;
62798;SDS011;48842;51.046;13.796;2023-07-20T05:35:19;10.23;;;5.47;;
62798;SDS011;48842;51.046;13.796;2023-07-20T05:37:45;9.30;;;5.33;;
62798;SDS011;48842;51.046;13.796;2023-07-20T05:40:11;26.77;;;7.73;;
62798;SDS011;48842;51.046;13.796;2023-07-20T05:42:37;9.40;;;5.80;;
62798;SDS011;48842;51.046;13.796;2023-07-20T05:45:03;9.57;;;5.80;;
62798;SDS011;48842;51.046;13.796;2023-07-20T05:47:29;9.13;;;5.90;;
62798;SDS011;48842;51.046;13.796;2023-07-20T05:49:54;21.67;;;5.80;;
62798;SDS011;48842;51.046;13.796;2023-07-20T05:52:19;7.90;;;4.93;;
62798;SDS011;48842;51.046;13.796;2023-07-20T05:54:44;6.50;;;4.80;;
62798;SDS011;48842;51.046;13.796;2023-07-20T05:57:10;5.00;;;4.50;;
62798;SDS011;48842;51.046;13.796;2023-07-20T05:59:36;11.63;;;5.43;;
62798;SDS011;48842;51.046;13.796;2023-07-20T06:02:01;8.97;;;5.80;;
62798;SDS011;48842;51.046;13.796;2023-07-20T06:04:26;7.57;;;5.40;;
62798;SDS011;48842;51.046;13.796;2023-07-20T06:06:52;6.40;;;4.90;;
62798;SDS011;48842;51.046;13.796;2023-07-20T06:09:17;10.63;;;4.77;;
62798;SDS011;48842;51.046;13.796;2023-07-20T06:11:42;7.90;;;4.70;;
62798;SDS011;48842;51.046;13.796;2023-07-20T06:14:08;8.80;;;5.57;;
62798;SDS011;48842;51.046;13.796;2023-07-20T06:16:33;5.57;;;4.13;;
62798;SDS011;48842;51.046;13.796;2023-07-20T06:18:59;9.07;;;5.47;;
62798;SDS011;48842;51.046;13.796;2023-07-20T06:21:25;8.30;;;5.33;;
62798;SDS011;48842;51.046;13.796;2023-07-20T06:23:50;10.83;;;5.97;;
62798;SDS011;48842;51.046;13.796;2023-07-20T06:26:15;10.70;;;4.97;;
62798;SDS011;48842;51.046;13.796;2023-07-20T06:28:41;8.37;;;5.20;;
62798;SDS011;48842;51.046;13.796;2023-07-20T06:31:06;8.40;;;6.43;;
62798;SDS011;48842;51.046;13.796;2023-07-20T06:33:31;7.70;;;5.83;;
62798;SDS011;48842;51.046;13.796;2023-07-20T06:35:57;13.73;;;5.40;;
62798;SDS011;48842;51.046;13.796;2023-07-20T06:38:23;11.27;;;5.20;;
62798;SDS011;48842;51.046;13.796;2023-07-20T06:40:51;7.53;;;4.40;;
62798;SDS011;48842;51.046;13.796;2023-07-20T06:43:16;7.13;;;4.30;;
62798;SDS011;48842;51.046;13.796;2023-07-20T06:45:41;7.23;;;4.30;;
62798;SDS011;48842;51.046;13.796;2023-07-20T06:48:07;8.03;;;3.63;;
62798;SDS011;48842;51.046;13.796;2023-07-20T06:50:32;5.00;;;2.83;;
62798;SDS011;48842;51.046;13.796;2023-07-20T06:52:58;6.33;;;3.73;;
62798;SDS011;48842;51.046;13.796;2023-07-20T06:55:25;5.50;;;3.90;;
62798;SDS011;48842;51.046;13.796;2023-07-20T06:57:51;5.20;;;3.80;;
62798;SDS011;48842;51.046;13.796;2023-07-20T07:00:17;4.43;;;3.90;;
62798;SDS011;48842;51.046;13.796;2023-07-20T07:02:43;9.93;;;4.70;;
62798;SDS011;48842;51.046;13.796;2023-07-20T07:05:08;7.13;;;3.57;;
62798;SDS011;48842;51.046;13.796;2023-07-20T07:07:33;2.97;;;2.60;;
62798;SDS011;48842;51.046;13.796;2023-07-20T07:09:59;2.30;;;2.20;;
62798;SDS011;48842;51.046;13.796;2023-07-20T07:12:25;4.30;;;2.70;;
62798;SDS011;48842;51.046;13.796;2023-07-20T07:14:50;2.60;;;2.40;;
62798;SDS011;48842;51.046;13.796;2023-07-20T07:17:16;3.73;;;3.00;;
62798;SDS011;48842;51.046;13.796;2023-07-20T07:19:41;7.13;;;3.27;;
62798;SDS011;48842;51.046;13.796;2023-07-20T07:22:07;4.33;;;3.33;;
62798;SDS011;48842;51.046;13.796;2023-07-20T07:24:32;7.50;;;3.43;;
62798;SDS011;48842;51.046;13.796;2023-07-20T07:27:01;4.67;;;2.80;;
62798;SDS011;48842;51.046;13.796;2023-07-20T07:29:26;4.53;;;2.90;;
62798;SDS011;48842;51.046;13.796;2023-07-20T07:31:52;3.73;;;3.40;;
62798;SDS011;48842;51.046;13.796;2023-07-20T07:34:17;3.90;;;3.50;;
62798;SDS011;48842;51.046;13.796;2023-07-20T07:36:43;5.47;;;3.60;;
62798;SDS011;48842;51.046;13.796;2023-07-20T07:39:08;3.90;;;3.50;;
62798;SDS011;48842;51.046;13.796;2023-07-20T07:41:34;3.00;;;2.80;;
62798;SDS011;48842;51.046;13.796;2023-07-20T07:43:59;3.33;;;3.13;;
62798;SDS011;48842;51.046;13.796;2023-07-20T07:46:24;3.40;;;3.17;;
62798;SDS011;48842;51.046;13.796;2023-07-20T07:48:50;4.10;;;3.70;;
62798;SDS011;48842;51.046;13.796;2023-07-20T07:51:15;3.40;;;3.10;;
62798;SDS011;48842;51.046;13.796;2023-07-20T07:53:40;4.37;;;2.93;;
62798;SDS011;48842;51.046;13.796;2023-07-20T07:56:08;5.33;;;3.37;;
62798;SDS011;48842;51.046;13.796;2023-07-20T07:58:34;3.43;;;3.03;;
62798;SDS011;48842;51.046;13.796;2023-07-20T08:00:59;5.80;;;2.67;;
62798;SDS011;48842;51.046;13.796;2023-07-20T08:03:25;6.37;;;3.87;;
62798;SDS011;48842;51.046;13.796;2023-07-20T08:05:53;6.50;;;3.33;;
62798;SDS011;48842;51.046;13.796;2023-07-20T08:08:20;4.20;;;3.80;;
62798;SDS011;48842;51.046;13.796;2023-07-20T08:10:45;4.50;;;4.00;;
62798;SDS011;48842;51.046;13.796;2023-07-20T08:13:10;8.23;;;5.03;;
62798;SDS011;48842;51.046;13.796;2023-07-20T08:15:36;8.03;;;4.80;;
62798;SDS011;48842;51.046;13.796;2023-07-20T08:18:02;5.10;;;4.70;;
62798;SDS011;48842;51.046;13.796;2023-07-20T08:20:27;6.00;;;5.00;;
62798;SDS011;48842;51.046;13.796;2023-07-20T08:22:53;7.07;;;4.60;;
62798;SDS011;48842;51.046;13.796;2023-07-20T08:25:20;5.20;;;4.80;;
62798;SDS011;48842;51.046;13.796;2023-07-20T08:27:45;16.47;;;4.67;;
62798;SDS011;48842;51.046;13.796;2023-07-20T08:30:12;6.60;;;5.50;;
62798;SDS011;48842;51.046;13.796;2023-07-20T08:32:37;7.50;;;4.33;;
62798;SDS011;48842;51.046;13.796;2023-07-20T08:35:03;8.10;;;5.20;;
62798;SDS011;48842;51.046;13.796;2023-07-20T08:37:29;5.87;;;5.37;;
62798;SDS011;48842;51.046;13.796;2023-07-20T08:39:55;5.87;;;4.63;;
62798;SDS011;48842;51.046;13.796;2023-07-20T08:42:20;5.50;;;4.97;;
62798;SDS011;48842;51.046;13.796;2023-07-20T08:44:47;6.40;;;5.43;;
62798;SDS011;48842;51.046;13.796;2023-07-20T08:47:13;5.67;;;4.90;;
62798;SDS011;48842;51.046;13.796;2023-07-20T08:49:41;13.43;;;6.10;;
62798;SDS011;48842;51.046;13.796;2023-07-20T08:52:06;5.27;;;4.87;;
62798;SDS011;48842;51.046;13.796;2023-07-20T08:54:32;6.17;;;5.67;;
62798;SDS011;48842;51.046;13.796;2023-07-20T08:57:01;5.63;;;5.13;;
62798;SDS011;48842;51.046;13.796;2023-07-20T08:59:28;7.00;;;5.57;;
62798;SDS011;48842;51.046;13.796;2023-07-20T09:01:55;8.07;;;5.50;;
62798;SDS011;48842;51.046;13.796;2023-07-20T09:04:22;6.53;;;5.00;;
62798;SDS011;48842;51.046;13.796;2023-07-20T09:06:47;5.57;;;5.07;;
62798;SDS011;48842;51.046;13.796;2023-07-20T09:09:14;5.20;;;4.80;;
62798;SDS011;48842;51.046;13.796;2023-07-20T09:11:40;5.13;;;4.50;;
62798;SDS011;48842;51.046;13.796;2023-07-20T09:14:06;5.33;;;4.80;;
62798;SDS011;48842;51.046;13.796;2023-07-20T09:16:32;4.13;;;3.73;;
62798;SDS011;48842;51.046;13.796;2023-07-20T09:19:11;5.33;;;4.00;;
62798;SDS011;48842;51.046;13.796;2023-07-20T09:21:36;6.93;;;4.30;;
62798;SDS011;48842;51.046;13.796;2023-07-20T09:24:02;4.97;;;4.50;;
62798;SDS011;48842;51.046;13.796;2023-07-20T09:26:27;4.37;;;3.97;;
62798;SDS011;48842;51.046;13.796;2023-07-20T09:28:53;4.33;;;4.10;;
62798;SDS011;48842;51.046;13.796;2023-07-20T09:31:20;4.33;;;4.03;;
62798;SDS011;48842;51.046;13.796;2023-07-20T09:33:46;4.37;;;3.97;;
62798;SDS011;48842;51.046;13.796;2023-07-20T09:36:12;7.33;;;3.73;;
62798;SDS011;48842;51.046;13.796;2023-07-20T09:38:39;4.30;;;4.00;;
62798;SDS011;48842;51.046;13.796;2023-07-20T09:41:06;4.50;;;4.10;;
62798;SDS011;48842;51.046;13.796;2023-07-20T09:43:33;6.00;;;3.70;;
62798;SDS011;48842;51.046;13.796;2023-07-20T09:45:59;3.97;;;3.70;;
62798;SDS011;48842;51.046;13.796;2023-07-20T09:48:25;3.67;;;3.47;;
62798;SDS011;48842;51.046;13.796;2023-07-20T09:50:54;3.40;;;3.10;;
62798;SDS011;48842;51.046;13.796;2023-07-20T09:53:20;5.50;;;3.40;;
62798;SDS011;48842;51.046;13.796;2023-07-20T09:55:46;4.20;;;3.80;;
62798;SDS011;48842;51.046;13.796;2023-07-20T09:58:13;3.60;;;3.40;;
62798;SDS011;48842;51.046;13.796;2023-07-20T10:00:39;4.37;;;3.80;;
62798;SDS011;48842;51.046;13.796;2023-07-20T10:03:10;3.67;;;3.40;;
62798;SDS011;48842;51.046;13.796;2023-07-20T10:05:39;5.13;;;4.07;;
62798;SDS011;48842;51.046;13.796;2023-07-20T10:08:08;4.77;;;4.47;;
62798;SDS011;48842;51.046;13.796;2023-07-20T10:10:37;20.20;;;6.90;;
62798;SDS011;48842;51.046;13.796;2023-07-20T10:13:05;27.03;;;10.03;;
62798;SDS011;48842;51.046;13.796;2023-07-20T10:15:35;10.13;;;6.20;;
62798;SDS011;48842;51.046;13.796;2023-07-20T10:18:21;5.43;;;4.90;;
62798;SDS011;48842;51.046;13.796;2023-07-20T10:20:54;7.50;;;6.70;;
62798;SDS011;48842;51.046;13.796;2023-07-20T10:23:20;7.17;;;6.40;;
62798;SDS011;48842;51.046;13.796;2023-07-20T10:25:47;10.33;;;9.10;;
62798;SDS011;48842;51.046;13.796;2023-07-20T10:28:13;10.90;;;9.80;;
62798;SDS011;48842;51.046;13.796;2023-07-20T10:30:38;11.23;;;10.33;;
62798;SDS011;48842;51.046;13.796;2023-07-20T10:33:04;10.03;;;9.23;;
62798;SDS011;48842;51.046;13.796;2023-07-20T10:35:30;10.03;;;9.13;;
62798;SDS011;48842;51.046;13.796;2023-07-20T10:38:15;10.20;;;9.30;;
62798;SDS011;48842;51.046;13.796;2023-07-20T10:40:40;10.27;;;9.37;;
62798;SDS011;48842;51.046;13.796;2023-07-20T10:43:06;9.63;;;8.70;;
62798;SDS011;48842;51.046;13.796;2023-07-20T10:48:19;8.43;;;7.80;;
62798;SDS011;48842;51.046;13.796;2023-07-20T10:51:08;8.50;;;7.60;;
62798;SDS011;48842;51.046;13.796;2023-07-20T10:53:39;7.97;;;7.37;;
62798;SDS011;48842;51.046;13.796;2023-07-20T10:58:43;5.40;;;5.00;;
62798;SDS011;48842;51.046;13.796;2023-07-20T11:01:08;5.90;;;5.50;;
62798;SDS011;48842;51.046;13.796;2023-07-20T11:03:39;5.03;;;4.73;;
62798;SDS011;48842;51.046;13.796;2023-07-20T11:09:09;6.00;;;4.33;;
62798;SDS011;48842;51.046;13.796;2023-07-20T11:11:36;5.50;;;5.10;;
62798;SDS011;48842;51.046;13.796;2023-07-20T11:14:03;5.40;;;5.10;;
62798;SDS011;48842;51.046;13.796;2023-07-20T11:19:03;4.90;;;4.53;;
62798;SDS011;48842;51.046;13.796;2023-07-20T11:21:36;4.30;;;3.97;;
62798;SDS011;48842;51.046;13.796;2023-07-20T11:24:03;4.73;;;4.43;;
62798;SDS011;48842;51.046;13.796;2023-07-20T11:26:29;4.10;;;3.90;;
62798;SDS011;48842;51.046;13.796;2023-07-20T11:28:55;4.53;;;4.23;;
62798;SDS011;48842;51.046;13.796;2023-07-20T11:31:20;4.70;;;4.40;;
62798;SDS011;48842;51.046;13.796;2023-07-20T11:33:46;8.33;;;5.03;;
62798;SDS011;48842;51.046;13.796;2023-07-20T11:36:11;6.30;;;5.73;;
62798;SDS011;48842;51.046;13.796;2023-07-20T11:38:38;6.23;;;5.60;;
62798;SDS011;48842;51.046;13.796;2023-07-20T11:41:06;4.60;;;4.30;;
62798;SDS011;48842;51.046;13.796;2023-07-20T11:43:32;5.30;;;4.93;;
62798;SDS011;48842;51.046;13.796;2023-07-20T11:45:59;5.70;;;5.30;;
62798;SDS011;48842;51.046;13.796;2023-07-20T11:48:24;4.47;;;4.13;;
62798;SDS011;48842;51.046;13.796;2023-07-20T11:50:49;4.60;;;4.20;;
62798;SDS011;48842;51.046;13.796;2023-07-20T11:53:15;4.57;;;4.20;;
62798;SDS011;48842;51.046;13.796;2023-07-20T11:55:41;5.33;;;4.83;;
62798;SDS011;48842;51.046;13.796;2023-07-20T11:58:08;5.37;;;5.07;;
62798;SDS011;48842;51.046;13.796;2023-07-20T12:00:34;4.80;;;4.50;;
62798;SDS011;48842;51.046;13.796;2023-07-20T12:03:00;5.00;;;4.70;;
62798;SDS011;48842;51.046;13.796;2023-07-20T12:05:26;4.97;;;4.67;;
62798;SDS011;48842;51.046;13.796;2023-07-20T12:07:51;5.50;;;5.10;;
62798;SDS011;48842;51.046;13.796;2023-07-20T12:10:22;4.53;;;4.23;;
62798;SDS011;48842;51.046;13.796;2023-07-20T12:12:50;5.67;;;4.07;;
62798;SDS011;48842;51.046;13.796;2023-07-20T12:15:22;4.50;;;4.20;;
62798;SDS011;48842;51.046;13.796;2023-07-20T12:17:52;6.00;;;3.80;;
62798;SDS011;48842;51.046;13.796;2023-07-20T12:20:29;6.00;;;4.13;;
62798;SDS011;48842;51.046;13.796;2023-07-20T12:22:59;5.37;;;4.87;;
62798;SDS011;48842;51.046;13.796;2023-07-20T12:25:48;4.70;;;4.40;;
62798;SDS011;48842;51.046;13.796;2023-07-20T12:28:14;5.33;;;4.93;;
62798;SDS011;48842;51.046;13.796;2023-07-20T12:30:42;4.90;;;4.60;;
62798;SDS011;48842;51.046;13.796;2023-07-20T12:33:09;6.13;;;5.63;;
62798;SDS011;48842;51.046;13.796;2023-07-20T12:35:35;5.77;;;5.33;;
62798;SDS011;48842;51.046;13.796;2023-07-20T12:38:00;6.60;;;6.00;;
62798;SDS011;48842;51.046;13.796;2023-07-20T12:40:25;6.97;;;6.30;;
62798;SDS011;48842;51.046;13.796;2023-07-20T12:42:51;7.03;;;6.00;;
62798;SDS011;48842;51.046;13.796;2023-07-20T12:45:16;6.70;;;6.20;;
62798;SDS011;48842;51.046;13.796;2023-07-20T12:47:42;6.73;;;6.23;;
62798;SDS011;48842;51.046;13.796;2023-07-20T12:50:09;5.07;;;4.57;;
62798;SDS011;48842;51.046;13.796;2023-07-20T12:52:38;5.50;;;5.10;;
62798;SDS011;48842;51.046;13.796;2023-07-20T12:55:08;10.67;;;5.13;;
62798;SDS011;48842;51.046;13.796;2023-07-20T12:57:35;6.20;;;4.70;;
62798;SDS011;48842;51.046;13.796;2023-07-20T13:00:02;4.90;;;4.40;;
62798;SDS011;48842;51.046;13.796;2023-07-20T13:02:33;3.50;;;3.30;;
62798;SDS011;48842;51.046;13.796;2023-07-20T13:04:58;4.80;;;3.70;;
62798;SDS011;48842;51.046;13.796;2023-07-20T13:07:30;6.37;;;3.40;;
62798;SDS011;48842;51.046;13.796;2023-07-20T13:09:58;4.13;;;3.70;;
62798;SDS011;48842;51.046;13.796;2023-07-20T13:12:25;3.37;;;3.17;;
62798;SDS011;48842;51.046;13.796;2023-07-20T13:14:54;3.20;;;3.00;;
62798;SDS011;48842;51.046;13.796;2023-07-20T13:17:20;3.73;;;3.53;;
62798;SDS011;48842;51.046;13.796;2023-07-20T13:19:46;3.00;;;2.90;;
62798;SDS011;48842;51.046;13.796;2023-07-20T13:22:11;3.40;;;3.10;;
62798;SDS011;48842;51.046;13.796;2023-07-20T13:24:36;2.80;;;2.63;;
62798;SDS011;48842;51.046;13.796;2023-07-20T13:27:02;3.20;;;3.00;;
62798;SDS011;48842;51.046;13.796;2023-07-20T13:29:29;2.90;;;2.43;;
62798;SDS011;48842;51.046;13.796;2023-07-20T13:31:54;3.53;;;3.23;;
62798;SDS011;48842;51.046;13.796;2023-07-20T13:34:19;3.07;;;2.47;;
62798;SDS011;48842;51.046;13.796;2023-07-20T13:36:44;3.53;;;2.77;;
62798;SDS011;48842;51.046;13.796;2023-07-20T13:39:10;2.60;;;2.40;;
62798;SDS011;48842;51.046;13.796;2023-07-20T13:41:35;3.37;;;2.30;;
62798;SDS011;48842;51.046;13.796;2023-07-20T13:44:00;4.57;;;2.20;;
62798;SDS011;48842;51.046;13.796;2023-07-20T13:46:25;2.90;;;2.70;;
62798;SDS011;48842;51.046;13.796;2023-07-20T13:48:51;2.50;;;2.40;;
62798;SDS011;48842;51.046;13.796;2023-07-20T13:51:16;2.77;;;2.47;;
62798;SDS011;48842;51.046;13.796;2023-07-20T13:53:42;2.13;;;2.03;;
62798;SDS011;48842;51.046;13.796;2023-07-20T13:56:07;2.57;;;2.00;;
62798;SDS011;48842;51.046;13.796;2023-07-20T13:58:33;4.63;;;2.60;;
62798;SDS011;48842;51.046;13.796;2023-07-20T14:00:58;2.43;;;2.23;;
62798;SDS011;48842;51.046;13.796;2023-07-20T14:03:23;2.37;;;2.20;;
62798;SDS011;48842;51.046;13.796;2023-07-20T14:05:49;2.27;;;2.17;;
62798;SDS011;48842;51.046;13.796;2023-07-20T14:08:15;3.77;;;2.03;;
62798;SDS011;48842;51.046;13.796;2023-07-20T14:10:40;4.03;;;2.10;;
62798;SDS011;48842;51.046;13.796;2023-07-20T14:13:05;5.47;;;2.30;;
62798;SDS011;48842;51.046;13.796;2023-07-20T14:15:31;4.03;;;2.23;;
62798;SDS011;48842;51.046;13.796;2023-07-20T14:17:56;1.97;;;1.87;;
62798;SDS011;48842;51.046;13.796;2023-07-20T14:20:21;1.83;;;1.73;;
62798;SDS011;48842;51.046;13.796;2023-07-20T14:22:47;3.07;;;1.60;;
62798;SDS011;48842;51.046;13.796;2023-07-20T14:25:13;7.87;;;1.40;;
62798;SDS011;48842;51.046;13.796;2023-07-20T14:27:38;6.13;;;1.80;;
62798;SDS011;48842;51.046;13.796;2023-07-20T14:30:03;2.50;;;2.30;;
62798;SDS011;48842;51.046;13.796;2023-07-20T14:32:29;2.20;;;1.80;;
62798;SDS011;48842;51.046;13.796;2023-07-20T14:34:55;1.73;;;1.63;;
62798;SDS011;48842;51.046;13.796;2023-07-20T14:37:20;2.80;;;2.00;;
62798;SDS011;48842;51.046;13.796;2023-07-20T14:39:45;1.70;;;1.60;;
62798;SDS011;48842;51.046;13.796;2023-07-20T14:42:11;2.10;;;1.90;;
62798;SDS011;48842;51.046;13.796;2023-07-20T14:44:36;2.10;;;1.60;;
62798;SDS011;48842;51.046;13.796;2023-07-20T14:47:01;2.50;;;1.87;;